createdAt,value
2018-06-11T00:01:19.081Z,20.90
2018-06-11T00:03:46.701Z,21.00
2018-06-11T00:06:14.365Z,20.90
2018-06-11T00:08:42.004Z,20.90
2018-06-11T00:11:09.627Z,21.00
2018-06-11T00:13:37.226Z,20.90
2018-06-11T00:16:04.879Z,20.90
2018-06-11T00:18:32.541Z,20.90
2018-06-11T00:21:00.153Z,20.90
2018-06-11T00:23:27.775Z,20.90
2018-06-11T00:25:55.402Z,21.00
2018-06-11T00:28:23.021Z,21.00
2018-06-11T00:30:50.616Z,21.00
2018-06-11T00:33:18.263Z,20.90
2018-06-11T00:35:45.873Z,20.90
2018-06-11T00:38:13.474Z,20.90
2018-06-11T00:40:41.126Z,20.90
2018-06-11T00:43:09.216Z,21.00
2018-06-11T00:45:36.908Z,21.00
2018-06-11T00:48:04.840Z,20.90
2018-06-11T00:50:32.510Z,21.00
2018-06-11T00:53:00.132Z,21.20
2018-06-11T00:56:11.758Z,21.10
2018-06-11T00:58:39.369Z,21.10
2018-06-11T01:01:07.031Z,21.10
2018-06-11T01:03:34.721Z,21.10
2018-06-11T01:06:02.280Z,21.10
2018-06-11T01:08:30.852Z,21.00
2018-06-11T01:10:58.518Z,21.00
2018-06-11T01:13:26.163Z,21.00
2018-06-11T01:15:53.710Z,21.00
2018-06-11T01:18:21.278Z,21.00
2018-06-11T01:20:48.862Z,21.00
2018-06-11T01:23:16.488Z,21.10
2018-06-11T01:25:44.043Z,21.10
2018-06-11T01:28:11.616Z,21.00
2018-06-11T01:30:39.199Z,21.00
2018-06-11T01:33:06.798Z,21.00
2018-06-11T01:35:34.375Z,21.00
2018-06-11T01:38:01.965Z,21.00
2018-06-11T01:40:29.625Z,21.00
2018-06-11T01:42:57.250Z,21.00
2018-06-11T01:45:24.934Z,21.20
2018-06-11T01:47:52.536Z,21.10
2018-06-11T01:50:20.077Z,21.10
2018-06-11T01:52:47.658Z,21.10
2018-06-11T01:55:15.548Z,21.10
2018-06-11T01:57:43.105Z,21.10
2018-06-11T02:00:10.727Z,21.00
2018-06-11T02:02:38.344Z,21.00
2018-06-11T02:05:05.904Z,21.00
2018-06-11T02:07:33.496Z,20.90
2018-06-11T02:10:01.102Z,21.00
2018-06-11T02:12:28.676Z,20.90
2018-06-11T02:14:56.311Z,20.90
2018-06-11T02:17:23.885Z,20.80
2018-06-11T02:19:51.419Z,20.80
2018-06-11T02:22:18.989Z,20.80
2018-06-11T02:24:46.581Z,20.80
2018-06-11T02:27:14.116Z,20.80
2018-06-11T02:29:41.673Z,20.80
2018-06-11T02:32:09.254Z,20.80
2018-06-11T02:34:36.815Z,20.80
2018-06-11T02:37:04.427Z,20.80
2018-06-11T02:39:32.009Z,20.80
2018-06-11T02:41:59.597Z,20.80
2018-06-11T02:44:27.234Z,20.80
2018-06-11T02:46:54.827Z,20.80
2018-06-11T02:49:22.486Z,20.70
2018-06-11T02:51:50.057Z,20.80
2018-06-11T02:54:17.711Z,20.80
2018-06-11T02:56:45.280Z,20.80
2018-06-11T02:59:12.942Z,20.90
2018-06-11T03:01:40.511Z,20.80
2018-06-11T03:04:08.060Z,20.90
2018-06-11T03:06:35.660Z,20.90
2018-06-11T03:09:05.194Z,20.80
2018-06-11T03:11:32.874Z,20.90
2018-06-11T03:14:00.469Z,21.00
2018-06-11T03:18:55.778Z,21.10
2018-06-11T03:21:23.392Z,21.10
2018-06-11T03:23:50.998Z,21.20
2018-06-11T03:26:18.573Z,21.30
2018-06-11T03:28:46.153Z,21.20
2018-06-11T03:31:13.809Z,21.30
2018-06-11T03:33:41.449Z,21.10
2018-06-11T03:36:09.063Z,21.20
2018-06-11T03:38:36.669Z,21.30
2018-06-11T03:41:04.242Z,21.30
2018-06-11T03:43:31.854Z,21.30
2018-06-11T03:45:59.460Z,21.20
2018-06-11T03:48:27.018Z,21.20
2018-06-11T03:50:54.658Z,21.20
2018-06-11T03:53:22.279Z,21.20
2018-06-11T03:55:49.861Z,21.40
2018-06-11T03:58:17.446Z,21.50
2018-06-11T04:00:45.119Z,21.50
2018-06-11T04:03:12.814Z,21.50
2018-06-11T04:05:40.425Z,21.50
2018-06-11T04:08:07.999Z,21.60
2018-06-11T04:10:35.631Z,21.70
2018-06-11T04:13:03.355Z,21.70
2018-06-11T04:15:30.967Z,21.80
2018-06-11T04:17:58.521Z,21.80
2018-06-11T04:20:26.119Z,21.80
2018-06-11T04:22:53.729Z,22.00
2018-06-11T04:25:21.380Z,22.10
2018-06-11T04:27:48.966Z,22.20
2018-06-11T04:30:16.523Z,22.10
2018-06-11T04:32:44.133Z,22.20
2018-06-11T04:37:39.628Z,22.20
2018-06-11T04:40:07.222Z,22.20
2018-06-11T04:42:34.846Z,22.20
2018-06-11T04:45:02.382Z,22.10
2018-06-11T04:47:29.958Z,22.10
2018-06-11T04:49:57.530Z,22.20
2018-06-11T04:52:25.130Z,22.00
2018-06-11T04:54:52.701Z,22.10
2018-06-11T04:57:20.291Z,22.10
2018-06-11T04:59:47.849Z,22.10
2018-06-11T05:02:15.445Z,22.10
2018-06-11T05:04:42.997Z,22.20
2018-06-11T05:07:10.571Z,22.10
2018-06-11T05:09:38.130Z,22.10
2018-06-11T05:12:05.705Z,22.30
2018-06-11T05:14:33.304Z,22.30
2018-06-11T05:17:01.525Z,22.20
2018-06-11T05:19:29.077Z,22.30
2018-06-11T05:21:56.688Z,22.30
2018-06-11T05:24:24.292Z,22.40
2018-06-11T05:26:52.009Z,22.70
2018-06-11T05:29:19.630Z,22.60
2018-06-11T05:31:47.282Z,22.70
2018-06-11T05:34:14.910Z,22.90
2018-06-11T05:36:42.528Z,23.10
2018-06-11T05:39:10.159Z,23.00
2018-06-11T05:41:37.821Z,22.90
2018-06-11T05:44:05.392Z,23.00
2018-06-11T05:46:32.998Z,23.20
2018-06-11T05:49:00.541Z,23.00
2018-06-11T05:51:28.133Z,22.80
2018-06-11T05:53:55.721Z,22.90
2018-06-11T05:56:23.285Z,22.90
2018-06-11T05:58:50.852Z,22.70
2018-06-11T06:01:18.459Z,22.70
2018-06-11T06:03:46.371Z,23.00
2018-06-11T06:06:13.951Z,23.10
2018-06-11T06:08:41.567Z,23.20
2018-06-11T06:11:09.185Z,23.20
2018-06-11T06:16:04.496Z,23.50
2018-06-11T06:18:32.071Z,23.60
2018-06-11T06:20:59.613Z,23.40
2018-06-11T06:23:27.136Z,23.40
2018-06-11T06:25:54.750Z,23.50
2018-06-11T06:28:22.314Z,23.40
2018-06-11T06:30:50.170Z,23.60
2018-06-11T06:33:17.865Z,23.70
2018-06-11T06:35:45.518Z,24.20
2018-06-11T06:40:40.776Z,24.30
2018-06-11T06:43:08.974Z,24.20
2018-06-11T06:45:36.602Z,24.10
2018-06-11T06:48:04.246Z,23.90
2018-06-11T06:50:31.921Z,23.90
2018-06-11T06:52:59.554Z,24.10
2018-06-11T06:55:27.101Z,24.40
2018-06-11T06:57:54.743Z,24.70
2018-06-11T07:00:22.369Z,24.80
2018-06-11T07:02:50.033Z,24.80
2018-06-11T07:05:17.674Z,24.80
2018-06-11T07:07:45.275Z,25.30
2018-06-11T07:10:12.977Z,25.90
2018-06-11T07:12:40.557Z,26.00
2018-06-11T07:15:08.169Z,26.10
2018-06-11T07:17:35.868Z,25.90
2018-06-11T07:20:03.773Z,26.00
2018-06-11T07:22:31.575Z,25.90
2018-06-11T07:24:59.183Z,25.90
2018-06-11T07:27:26.811Z,25.90
2018-06-11T07:29:54.425Z,25.90
2018-06-11T07:32:22.035Z,25.60
2018-06-11T07:34:49.631Z,25.60
2018-06-11T07:37:17.256Z,25.30
2018-06-11T07:39:44.922Z,25.10
2018-06-11T07:42:12.530Z,25.60
2018-06-11T07:44:40.182Z,25.30
2018-06-11T07:47:07.795Z,25.50
2018-06-11T07:49:35.439Z,25.90
2018-06-11T07:52:03.044Z,26.30
2018-06-11T07:54:31.137Z,26.50
2018-06-11T07:56:58.691Z,26.50
2018-06-11T07:59:26.335Z,26.70
2018-06-11T08:01:53.922Z,26.80
2018-06-11T08:04:21.545Z,27.10
2018-06-11T08:06:49.073Z,27.30
2018-06-11T08:09:16.669Z,27.30
2018-06-11T08:11:44.300Z,27.30
2018-06-11T08:14:11.883Z,27.10
2018-06-11T08:16:39.480Z,26.50
2018-06-11T08:19:07.070Z,26.50
2018-06-11T08:21:34.631Z,27.10
2018-06-11T08:24:02.238Z,26.70
2018-06-11T08:26:29.822Z,27.00
2018-06-11T08:28:57.459Z,26.60
2018-06-11T08:31:25.042Z,25.90
2018-06-11T08:33:52.633Z,25.80
2018-06-11T08:36:20.266Z,26.30
2018-06-11T08:38:47.860Z,25.90
2018-06-11T08:41:15.425Z,25.70
2018-06-11T08:43:43.031Z,25.30
2018-06-11T08:46:10.674Z,24.90
2018-06-11T08:48:38.266Z,24.90
2018-06-11T08:51:06.891Z,25.00
2018-06-11T08:53:34.445Z,24.80
2018-06-11T08:56:02.037Z,24.50
2018-06-11T08:58:29.665Z,24.40
2018-06-11T09:00:57.291Z,24.10
2018-06-11T09:03:24.870Z,23.90
2018-06-11T09:05:52.481Z,23.70
2018-06-11T09:08:20.077Z,23.80
2018-06-11T09:10:47.703Z,23.70
2018-06-11T09:13:15.302Z,23.70
2018-06-11T09:15:42.886Z,23.90
2018-06-11T09:18:10.701Z,24.20
2018-06-11T09:20:38.144Z,24.70
2018-06-11T09:23:06.276Z,25.10
2018-06-11T09:25:33.846Z,25.30
2018-06-11T09:28:01.550Z,25.50
2018-06-11T09:30:29.150Z,25.70
2018-06-11T09:32:56.704Z,25.80
2018-06-11T09:37:51.891Z,25.90
2018-06-11T09:40:19.489Z,26.30
2018-06-11T09:42:47.121Z,26.40
2018-06-11T09:45:14.706Z,26.80
2018-06-11T09:47:42.321Z,26.90
2018-06-11T09:50:09.950Z,27.20
2018-06-11T09:52:37.584Z,27.40
2018-06-11T09:55:05.275Z,27.50
2018-06-11T09:57:32.887Z,27.10
2018-06-11T10:00:00.503Z,26.90
2018-06-11T10:02:28.129Z,26.10
2018-06-11T10:07:23.309Z,26.20
2018-06-11T10:09:50.923Z,26.50
2018-06-11T10:12:18.573Z,26.90
2018-06-11T10:14:46.122Z,27.30
2018-06-11T10:17:13.763Z,27.50
2018-06-11T10:19:41.386Z,27.10
2018-06-11T10:22:08.986Z,27.50
2018-06-11T10:24:36.550Z,27.10
2018-06-11T10:27:04.095Z,26.80
2018-06-11T10:29:31.681Z,26.50
2018-06-11T10:31:59.229Z,25.80
2018-06-11T10:34:26.844Z,26.20
2018-06-11T10:36:54.473Z,26.70
2018-06-11T10:39:22.101Z,27.50
2018-06-11T10:41:49.693Z,28.30
2018-06-11T10:44:17.291Z,29.00
2018-06-11T10:46:44.950Z,29.40
2018-06-11T10:49:12.599Z,28.90
2018-06-11T10:51:40.187Z,29.00
2018-06-11T10:54:07.864Z,29.20
2018-06-11T10:56:35.579Z,28.70
2018-06-11T10:59:03.226Z,28.60
2018-06-11T11:01:30.840Z,28.80
2018-06-11T11:03:58.428Z,28.60
2018-06-11T11:06:26.075Z,28.50
2018-06-11T11:08:53.626Z,28.30
2018-06-11T11:11:21.230Z,28.50
2018-06-11T11:13:48.828Z,28.30
2018-06-11T11:16:16.534Z,28.40
2018-06-11T11:18:44.137Z,27.90
2018-06-11T11:21:12.048Z,28.00
2018-06-11T11:23:39.649Z,27.70
2018-06-11T11:26:07.269Z,27.90
2018-06-11T11:28:34.832Z,28.80
2018-06-11T11:31:02.479Z,29.20
2018-06-11T11:33:30.117Z,28.90
2018-06-11T11:35:57.706Z,28.50
2018-06-11T11:38:25.296Z,28.80
2018-06-11T11:40:52.910Z,29.40
2018-06-11T11:43:20.525Z,30.20
2018-06-11T11:45:48.169Z,30.70
2018-06-11T11:48:15.771Z,30.90
2018-06-11T11:50:43.442Z,31.30
2018-06-11T11:53:11.065Z,31.30
2018-06-11T11:55:38.662Z,31.20
2018-06-11T11:58:06.195Z,31.70
2018-06-11T12:00:33.780Z,31.70
2018-06-11T12:03:01.494Z,30.90
2018-06-11T12:05:29.066Z,30.30
2018-06-11T12:07:56.654Z,30.10
2018-06-11T12:10:24.274Z,30.70
2018-06-11T12:12:51.876Z,31.80
2018-06-11T12:15:19.482Z,33.40
2018-06-11T12:17:47.092Z,33.30
2018-06-11T12:20:14.702Z,34.80
2018-06-11T12:22:42.241Z,34.80
2018-06-11T12:25:09.908Z,36.50
2018-06-11T12:30:05.196Z,38.60
2018-06-11T12:32:32.801Z,39.80
2018-06-11T12:35:00.441Z,40.60
2018-06-11T12:37:28.017Z,40.40
2018-06-11T12:39:55.567Z,39.10
2018-06-11T12:42:23.147Z,38.00
2018-06-11T12:44:50.679Z,38.20
2018-06-11T12:47:18.254Z,38.00
2018-06-11T12:49:46.221Z,36.80
2018-06-11T12:52:13.885Z,36.30
2018-06-11T12:54:41.442Z,34.30
2018-06-11T12:57:09.089Z,33.90
2018-06-11T12:59:36.712Z,32.60
2018-06-11T13:02:04.636Z,32.70
2018-06-11T13:04:32.303Z,32.30
2018-06-11T13:06:59.954Z,31.60
2018-06-11T13:09:27.602Z,30.80
2018-06-11T13:11:55.295Z,30.60
2018-06-11T13:14:22.943Z,32.00
2018-06-11T13:16:50.551Z,33.40
2018-06-11T13:19:18.283Z,33.70
2018-06-11T13:21:46.020Z,33.70
2018-06-11T13:24:13.690Z,33.90
2018-06-11T13:26:41.341Z,34.20
2018-06-11T13:29:08.953Z,35.10
2018-06-11T13:31:36.625Z,35.30
2018-06-11T13:34:04.170Z,36.90
2018-06-11T13:36:31.840Z,37.20
2018-06-11T13:38:59.481Z,38.90
2018-06-11T13:41:27.112Z,39.80
2018-06-11T13:43:54.751Z,39.60
2018-06-11T13:46:22.382Z,39.00
2018-06-11T13:48:50.054Z,39.50
2018-06-11T13:51:17.720Z,40.00
2018-06-11T13:53:45.362Z,40.00
2018-06-11T13:56:12.952Z,38.50
2018-06-11T13:58:40.554Z,37.70
2018-06-11T14:01:08.196Z,37.00
2018-06-11T14:03:35.851Z,37.60
2018-06-11T14:06:03.636Z,39.90
2018-06-11T14:08:31.371Z,41.70
2018-06-11T14:10:58.961Z,41.30
2018-06-11T14:13:26.545Z,39.10
2018-06-11T14:15:54.136Z,36.60
2018-06-11T14:18:21.688Z,34.20
2018-06-11T14:20:49.254Z,34.90
2018-06-11T14:23:16.891Z,35.00
2018-06-11T14:25:44.466Z,34.50
2018-06-11T14:28:12.109Z,33.80
2018-06-11T14:30:39.756Z,32.60
2018-06-11T14:33:07.356Z,32.90
2018-06-11T14:35:34.910Z,33.50
2018-06-11T14:38:02.508Z,34.00
2018-06-11T14:40:30.148Z,34.70
2018-06-11T14:42:57.838Z,35.10
2018-06-11T14:45:25.596Z,34.40
2018-06-11T14:47:53.206Z,36.00
2018-06-11T14:50:20.871Z,37.00
2018-06-11T14:52:48.500Z,38.40
2018-06-11T14:55:16.070Z,38.70
2018-06-11T14:57:43.753Z,39.30
2018-06-11T15:00:11.404Z,38.60
2018-06-11T15:02:38.991Z,37.00
2018-06-11T15:05:06.617Z,36.60
2018-06-11T15:07:34.271Z,36.70
2018-06-11T15:10:01.897Z,36.80
2018-06-11T15:12:29.680Z,36.30
2018-06-11T15:14:57.263Z,36.70
2018-06-11T15:17:24.815Z,35.30
2018-06-11T15:19:52.397Z,35.70
2018-06-11T15:22:20.013Z,36.30
2018-06-11T15:24:47.622Z,37.80
2018-06-11T15:27:15.203Z,38.00
2018-06-11T15:29:42.826Z,38.40
2018-06-11T15:32:10.408Z,38.10
2018-06-11T15:34:38.986Z,38.00
2018-06-11T15:39:34.384Z,38.00
2018-06-11T15:42:02.019Z,37.60
2018-06-11T15:44:29.719Z,36.60
2018-06-11T15:46:57.292Z,36.10
2018-06-11T15:49:24.913Z,35.40
2018-06-11T15:51:52.491Z,35.30
2018-06-11T15:54:20.082Z,35.00
2018-06-11T15:59:15.423Z,33.70
2018-06-11T16:01:43.066Z,33.40
2018-06-11T16:06:38.427Z,32.90
2018-06-11T16:09:07.002Z,33.10
2018-06-11T16:11:34.737Z,32.60
2018-06-11T16:16:30.037Z,31.90
2018-06-11T16:18:57.646Z,31.50
2018-06-11T16:21:25.240Z,30.90
2018-06-11T16:23:52.884Z,31.30
2018-06-11T16:26:20.532Z,31.20
2018-06-11T16:28:48.081Z,31.00
2018-06-11T16:31:15.677Z,31.10
2018-06-11T16:33:43.322Z,31.10
2018-06-11T16:36:10.961Z,31.70
2018-06-11T16:41:07.097Z,32.70
2018-06-11T16:43:34.690Z,32.50
2018-06-11T16:46:02.345Z,32.30
2018-06-11T16:48:30.022Z,32.10
2018-06-11T16:50:57.627Z,31.40
2018-06-11T16:53:25.248Z,30.50
2018-06-11T16:55:52.853Z,29.40
2018-06-11T16:58:20.431Z,28.80
2018-06-11T17:03:15.703Z,28.00
2018-06-11T17:05:43.322Z,27.40
2018-06-11T17:08:10.911Z,27.30
2018-06-11T17:10:38.578Z,27.10
2018-06-11T17:13:06.199Z,27.10
2018-06-11T17:15:33.862Z,27.00
2018-06-11T17:20:29.246Z,27.00
2018-06-11T17:22:56.845Z,26.80
2018-06-11T17:25:24.514Z,26.70
2018-06-11T17:27:52.189Z,26.40
2018-06-11T17:30:19.778Z,26.10
2018-06-11T17:32:47.317Z,26.10
2018-06-11T17:35:14.935Z,26.10
2018-06-11T17:37:42.475Z,26.10
2018-06-11T17:40:10.047Z,26.10
2018-06-11T17:42:37.715Z,25.90
2018-06-11T17:45:05.340Z,25.70
2018-06-11T17:47:33.052Z,25.70
2018-06-11T17:50:00.682Z,25.60
2018-06-11T17:52:28.299Z,25.60
2018-06-11T17:54:55.989Z,25.50
2018-06-11T17:57:24.920Z,25.60
2018-06-11T17:59:52.613Z,25.50
2018-06-11T18:02:20.277Z,25.30
2018-06-11T18:04:47.961Z,25.20
2018-06-11T18:07:15.578Z,25.10
2018-06-11T18:09:43.168Z,25.10
2018-06-11T18:12:10.760Z,24.90
2018-06-11T18:14:38.448Z,24.70
2018-06-11T18:17:06.162Z,24.80
2018-06-11T18:19:33.820Z,24.70
2018-06-11T18:22:01.500Z,24.80
2018-06-11T18:24:29.155Z,24.70
2018-06-11T18:26:57.046Z,24.70
2018-06-11T18:29:24.779Z,24.50
2018-06-11T18:31:52.545Z,24.50
2018-06-11T18:34:20.250Z,24.40
2018-06-11T18:36:48.045Z,24.30
2018-06-11T18:39:16.123Z,24.40
2018-06-11T18:41:43.859Z,24.30
2018-06-11T18:44:11.571Z,24.20
2018-06-11T18:46:39.292Z,24.00
2018-06-11T18:49:07.016Z,23.90
2018-06-11T18:51:34.742Z,23.80
2018-06-11T18:54:02.657Z,23.70
2018-06-11T18:56:30.431Z,23.60
2018-06-11T18:58:58.175Z,23.50
2018-06-11T19:01:25.875Z,23.50
2018-06-11T19:03:53.753Z,23.40
2018-06-11T19:06:22.701Z,23.40
2018-06-11T19:08:50.370Z,23.30
2018-06-11T19:11:17.988Z,23.30
2018-06-11T19:13:45.752Z,23.30
2018-06-11T19:16:13.464Z,23.30
2018-06-11T19:18:41.312Z,23.20
2018-06-11T19:21:08.917Z,23.10
2018-06-11T19:23:36.554Z,23.00
2018-06-11T19:26:04.224Z,22.90
2018-06-11T19:28:31.858Z,22.90
2018-06-11T19:30:59.482Z,22.80
2018-06-11T19:33:27.070Z,22.70
2018-06-11T19:35:54.760Z,22.70
2018-06-11T19:38:22.358Z,22.60
2018-06-11T19:40:50.057Z,22.50
2018-06-11T19:43:17.663Z,22.40
2018-06-11T19:45:45.286Z,22.30
2018-06-11T19:48:12.932Z,22.30
2018-06-11T19:50:40.574Z,22.30
2018-06-11T19:53:08.256Z,22.30
2018-06-11T19:55:35.961Z,22.20
2018-06-11T19:58:03.670Z,22.10
2018-06-11T20:00:31.384Z,22.10
2018-06-11T20:02:58.982Z,22.00
2018-06-11T20:05:26.649Z,22.00
2018-06-11T20:07:54.373Z,21.90
2018-06-11T20:10:22.035Z,21.90
2018-06-11T20:12:49.667Z,21.90
2018-06-11T20:17:45.099Z,21.80
2018-06-11T20:20:12.851Z,21.80
2018-06-11T20:22:41.188Z,21.80
2018-06-11T20:25:09.782Z,21.80
2018-06-11T20:27:37.466Z,21.70
2018-06-11T20:30:05.155Z,21.50
2018-06-11T20:32:32.814Z,21.40
2018-06-11T20:35:00.480Z,21.30
2018-06-11T20:37:28.142Z,21.30
2018-06-11T20:39:55.829Z,21.10
2018-06-11T20:42:23.640Z,21.10
2018-06-11T20:44:51.386Z,21.10
2018-06-11T20:47:19.202Z,21.20
2018-06-11T20:49:46.936Z,21.20
2018-06-11T20:52:14.678Z,21.30
2018-06-11T20:54:42.506Z,21.30
2018-06-11T20:57:10.528Z,21.20
2018-06-11T20:59:39.020Z,21.20
2018-06-11T21:02:09.596Z,21.00
2018-06-11T21:04:37.360Z,21.10
2018-06-11T21:07:05.256Z,20.90
2018-06-11T21:09:32.887Z,20.80
2018-06-11T21:12:00.556Z,20.80
2018-06-11T21:14:28.778Z,20.70
2018-06-11T21:16:56.831Z,20.70
2018-06-11T21:19:24.556Z,20.60
2018-06-11T21:21:52.319Z,20.60
2018-06-11T21:24:20.355Z,20.60
2018-06-11T21:26:48.688Z,20.60
2018-06-11T21:29:16.499Z,20.50
2018-06-11T21:31:44.382Z,20.50
2018-06-11T21:34:12.092Z,20.60
2018-06-11T21:36:39.786Z,20.60
2018-06-11T21:39:08.217Z,20.60
2018-06-11T21:41:35.898Z,20.60
2018-06-11T21:44:03.796Z,20.70
2018-06-11T21:46:31.454Z,20.70
2018-06-11T21:48:59.161Z,20.70
2018-06-11T21:51:27.027Z,20.80
2018-06-11T21:53:54.985Z,20.80
2018-06-11T21:56:22.704Z,20.80
2018-06-11T21:58:50.482Z,20.90
2018-06-11T22:01:18.580Z,20.90
2018-06-11T22:03:46.468Z,21.00
2018-06-11T22:06:14.230Z,21.10
2018-06-11T22:08:42.057Z,21.10
2018-06-11T22:11:09.792Z,21.00
2018-06-11T22:13:37.549Z,21.10
2018-06-11T22:16:05.272Z,21.10
2018-06-11T22:18:33.265Z,21.10
2018-06-11T22:23:28.662Z,21.00
2018-06-11T22:25:56.926Z,20.90
2018-06-11T22:28:24.639Z,20.90
2018-06-11T22:30:52.312Z,20.90
2018-06-11T22:33:20.090Z,20.90
2018-06-11T22:35:47.856Z,21.00
2018-06-11T22:38:15.675Z,21.10
2018-06-11T22:40:43.381Z,21.10
2018-06-11T22:43:11.234Z,21.10
2018-06-11T22:45:38.991Z,21.10
2018-06-11T22:48:06.720Z,21.10
2018-06-11T22:50:34.443Z,21.10
2018-06-11T22:53:02.116Z,21.10
2018-06-11T22:55:29.775Z,21.10
2018-06-11T22:57:57.447Z,21.00
2018-06-11T23:00:32.944Z,20.90
2018-06-11T23:03:01.039Z,20.80
2018-06-11T23:05:28.849Z,20.80
2018-06-11T23:07:58.151Z,20.70
2018-06-11T23:10:25.840Z,20.60
2018-06-11T23:12:53.555Z,20.60
2018-06-11T23:15:21.249Z,20.50
2018-06-11T23:17:48.915Z,20.50
2018-06-11T23:20:16.501Z,20.40
2018-06-11T23:22:44.059Z,20.40
2018-06-11T23:27:39.320Z,20.30
2018-06-11T23:30:06.951Z,20.30
2018-06-11T23:32:34.583Z,20.30
2018-06-11T23:35:02.237Z,20.30
2018-06-11T23:37:29.820Z,20.30
2018-06-11T23:39:57.410Z,20.30
2018-06-11T23:42:25.062Z,20.20
2018-06-11T23:44:52.668Z,20.30
2018-06-11T23:47:20.412Z,20.30
2018-06-11T23:49:48.068Z,20.30
2018-06-11T23:52:15.734Z,20.30
2018-06-11T23:54:43.454Z,20.20
2018-06-11T23:57:11.323Z,20.20
2018-06-11T23:59:38.978Z,20.20
